Terminal Aerodrome Forecast
Issued by NWS

Home | Current Version | Previous Version | Graphics & Text | Print | Product List | Glossary On
Versions: 1 2 3 4 5 6 7 8 9 10 11 12 13 14 15 16 17 18 19 20 21 22 23
000
FTUS43 KABR 220809 AAA
TAFATY
TAF AMD
KATY 220809Z 2208/2306 VRB03KT 1/4SM FG VV004
      TEMPO 2208/2210 2SM BR
     FM221300 15004KT 3SM BR FEW060
     FM221400 15005KT 6SM BR FEW200=

USA.gov is the U.S. government's official web portal to all federal, state and local government web resources and services.